航空気象通報

ウインドサーファーのための航空気象通報による風予報です。

10/31-11/1の航空気象通報(国内、海外)

2010年10月31日 22時25分44秒 | TAF
羽田空港
TAF RJTT 310849Z 3109/0112 02018KT 9000 FEW010 BKN015
TEMPO 3112/3115 4000 -RA BR FEW007 BKN009
TEMPO 3115/3118 2000 SHRA BR BKN007 BKN012
TEMPO 3118/3121 36020G30KT 1500 +SHRA BR BKN007 BKN012
BECMG 0103/0106 20018KT
日本時間31日18時-1日12時:020度から18ノットの風
但し、1日03-06時の間:一時、360度から20ノット、突風30ノット
1日12-15時:風が変化
15-21時:200度から18ノットの風

但し、31日21時-1日06時の間:一時、

富士山静岡空港
TAF RJNS 310844Z 3109/0112 05010KT 9999 FEW015 SCT030 BKN050
TEMPO 3114/3121 05018G28KT 4000 SHRA BR FEW002 BKN008
BECMG 3121/3124 27014KT
BECMG 0103/0106 25020G30KT
日本時間31日18時-1日06時:050度から10ノットの風
但し、31日23時-1日06時の間:一時、050度から18ノット、突風28ノット
1日06-09時:風が変化
09-12時:270度から14ノットの風
12-15時:風が変化
15-21時:250度から20ノット、突風30ノット

但し、31日23時-1日06時の間:一時、、もや

那覇空港
TAF ROAH 310843Z 3109/0112 01017KT 9999 FEW030
日本時間31日18時-1日21時:010度から17ノットの風


マウイのカフルイ空港
TAF PHOG 311128Z 3112/0112 05009KT P6SM FEW050
FM312000 04014G21KT P6SM FEW030 SCT050
FM010600 05009KT P6SM FEW050
ハワイ時間31日02-10時:050度から9ノットの風
10-20時:040度から14ノット、突風21ノット
20時-1日02時:050度から9ノットの風


サイパン空港
TAF PGSN 311127Z 3112/0112 09008KT P6SM VCSH SCT020 SCT100
TEMPO 3112/3114 09012G20KT 5SM -SHRA SCT015CB BKN030
マリアナ時間31日22時-1日22時:090度から8ノットの風
但し、31日22-24時の間:一時、090度から12ノット、突風20ノット

但し、31日22-24時の間:一時、
コメント
この記事をはてなブックマークに追加

10/30-10/31の航空気象通報(国内、海外)

2010年10月30日 22時43分12秒 | TAF
羽田空港
TAF AMD RJTT 301053Z 3010/3112 34022KT 6000 FEW006 BKN020
TEMPO 3010/3015 35022G32KT FEW005 BKN009
BECMG 3018/3021 36012KT
BECMG 3106/3109 07015KT
日本時間30日18時-31日03時:340度から22ノットの風
但し、30日19-24時の間:一時、350度から22ノット、突風32ノット
31日03-06時:風が変化
06-15時:360度から12ノットの風
15-18時:風が変化
18-21時:070度から15ノットの風


富士山静岡空港
TAF RJNS 300841Z 3009/3112 34008KT 9999 FEW015 BKN030
BECMG 3021/3024 13010KT
BECMG 3106/3109 05008KT
TEMPO 3109/3112 4000 SHRA BR
日本時間30日18時-31日06時:340度から8ノットの風
06-09時:風が変化
09-15時:130度から10ノットの風
15-18時:風が変化
18-21時:050度から8ノットの風

但し、31日18-21時の間:一時、、もや

那覇空港
TAF ROAH 300839Z 3009/3112 02011KT 9999 FEW030 SCT045
日本時間30日18時-31日21時:020度から11ノットの風


マウイのカフルイ空港
TAF PHOG 301137Z 3012/3112 05010KT P6SM VCSH SCT030 BKN050
FM302000 04015G25KT P6SM FEW030 SCT050
FM310600 05010KT P6SM SCT030 SCT050
ハワイ時間30日02-10時:050度から10ノットの風

10-20時:040度から15ノット、突風25ノット
20時-31日02時:050度から10ノットの風


サイパン空港
TAF TAF PGSN 301120Z 3012/3112 10008KT P6SM VCSH SCT018 SCT040 BKN120
TEMPO 3012/3014 08015KT 6SM SHRA SCT016CB BKN030 OVC100
マリアナ時間30日22時-31日22時:100度から8ノットの風

但し、30日22-24時の間:一時、
コメント
この記事をはてなブックマークに追加

10/29-10/30の航空気象通報(国内、海外)

2010年10月29日 23時47分56秒 | TAF
羽田空港
TAF RJTT 290850Z 2909/3012 04016KT 9999 FEW030 BKN060
TEMPO 2921/3006 3000 SHRA BR
BECMG 3003/3006 02030G42KT
BECMG 3006/3009 4000 SHRA BR FEW006 BKN009 BKN012
TEMPO 3006/3012 1500 +SHRA BR FEW004 BKN006
日本時間29日18時-30日12時:040度から16ノットの風
12-15時:風が変化
15-21時:020度から30ノット、突風42ノット
、30日15-18時の後、
但し、30日06-15時の間:一時、

富士山静岡空港
TAF RJNS 290841Z 2909/3012 06014KT 9999 -RA FEW010 BKN040
BECMG 2914/2916 04018G30KT 4000 -RA BR
TEMPO 2916/2924 3000 SHRA BR BKN003 BKN008
TEMPO 3000/3006 04025G40KT SHRA BKN003 BKN008
TEMPO 3006/3009 04030G45KT +SHRA BKN001 BKN003
BECMG 3009/3012 27012G30KT 9999 NSW
日本時間29日18-23時:060度から14ノットの風
23時-30日01時:風が変化
01時-18時:040度から18ノット、突風30ノット
但し、09-15時の間:一時、040度から25ノット、突風40ノット
但し、15-19時の間:一時、040度から30ノット、突風45ノット
18-21時:風が変化
21時:270度から12ノット、突風30ノット
、30日18-21時の後、

那覇空港
TAF ROAH 290840Z 2909/3012 01018KT 9999 FEW025 SCT040
日本時間29日18時-30日21時:010度から18ノットの風


マウイのカフルイ空港
TAF PHOG 291127Z 2912/3012 05014KT P6SM VCSH SCT030 SCT045
FM292000 04014G22KT P6SM FEW035 SCT050
FM300600 05012KT P6SM SCT035 SCT050
ハワイ時間29日02-10時:050度から14ノットの風
10-20時:040度から14ノット、突風22ノット
20時-30日02時:050度から12ノットの風


サイパン空港
TAF PGSN 291136Z 2912/3012 07009KT P6SM VCSH FEW018 SCT040
FM300000 07012KT P6SM VCSH SCT018 SCT040
マリアナ時間29日22時-30日10時:070度から9ノットの風
10-22時:070度から12ノットの風

コメント
この記事をはてなブックマークに追加

10/28-10/29の航空気象通報(国内、海外)

2010年10月29日 00時02分13秒 | TAF
羽田空港
TAF RJTT 280839Z 2809/2912 35018KT 6000 FEW004 SCT009 BKN015
TEMPO 2809/2815 35022G32KT 3000 RA BR FEW004 BKN007
日本時間28日18時-29日21時:350度から18ノットの風
但し、28日18-24時の間:一時、350度から22ノット、突風32ノット

但し、28日18-24時の間:一時、

富士山静岡空港
TAF RJNS 280842Z 2809/2912 33006KT 9999 FEW010 BKN020
TEMPO 2809/2811 4000 RA BR
BECMG 2821/2824 05010KT
日本時間28日18時-29日06時:330度から6ノットの風
06-09時:風が変化
09-21時:050度から10ノットの風

但し、28日18-20時の間:一時、

那覇空港
TAF ROAH 281449Z 2815/2918 36033KT 7000 SCT020 BKN030
TEMPO 2815/2824 36040G55KT
TEMPO 2900/2906 36025G35KT
BECMG 2906/2909 01020KT=
日本時間29日00-15時:360度から33ノットの風
但し、00-09時の間:一時、360度から40ノット、突風55ノット
但し、09-15時の間:一時、360度から25ノット、突風35ノット
15-18時:風が変化
18時-30日03時:010度から20ノットの風


マウイのカフルイ空港
TAF PHOG 281134Z 2812/2912 06015G22KT P6SM VCSH FEW025 SCT040
FM282000 06018G25KT P6SM SCT030 SCT050
FM290500 06010KT P6SM FEW030 SCT050
ハワイ時間28日02-10時:060度から15ノット、突風22ノット
10-19時:060度から18ノット、突風25ノット
19時-29日02時:060度から10ノットの風


サイパン空港
TAF PGSN 281120Z 2812/2912 07007KT P6SM VCSH FEW020 SCT040
FM290000 08012KT P6SM VCSH SCT018 SCT040
マリアナ時間28日22時-29日10時:070度から7ノットの風
10-22時:080度から12ノットの風

コメント
この記事をはてなブックマークに追加

10/27-10/28の航空気象通報(国内、海外)

2010年10月27日 23時37分35秒 | TAF
羽田空港
TAF RJTT 270848Z 2709/2812 07012KT 9999 FEW030 SCT050
BECMG 2711/2713 05012KT
BECMG 2800/2803 35012KT
BECMG 2803/2806 4000 -RA BR FEW005 BKN008 BKN015
TEMPO 2803/2809 3000 RA BR
日本時間27日18-20時:070度から12ノットの風
20-22時:風が変化
22時-28日09時:050度から12ノットの風
09-12時:風が変化
12-21時:350度から12ノットの風
、28日12-15時の後、

富士山静岡空港
TAF RJNS 270842Z 2709/2812 04006KT 9999 FEW030 SCT050
TEMPO 2721/2724 4000 -RA BR BKN008 BKN015
TEMPO 2800/2806 4000 RA BR BKN008 BKN015
日本時間27日18時-28日21時:040度から6ノットの風
但し、26日18-20時の間:270度から20ノット、突風30ノット

但し、28日06-09時の間:一時、
但し、28日09-15時の間:一時、

那覇空港
TAF ROAH 270851Z 2709/2812 03022G35KT 8000 -SHRA SCT010 BKN045
TEMPO 2709/2718 4000 SHRA FEW008 SCT010 FEW020CB BKN025
TEMPO 2718/2803 3500 +SHRA FEW008 SCT010 SCT020CB BKN025
BECMG 2803/2806 02035G50KT
TEMPO 2803/2812 2000 +SHRA FEW008 SCT010 SCT020CB BKN025
日本時間27日18時-28日12時:030度から22ノット、突風35ノット
12-15時:風が変化
15-21時:020度から35ノット、突風50ノット


マウイのカフルイ空港
TAF PHOG 271137Z 2712/2812 06012G17KT P6SM FEW050
FM271900 05020G28KT P6SM FEW030 SCT050
FM280500 06012KT P6SM SKC
ハワイ時間27日02-09時:060度から12ノット、突風17ノット
09-19時:050度から20ノット、突風28ノット
19時-28日02時:060度から12ノットの風


サイパン空港
TAF PGSN 271306Z 2713/2812 07008KT P6SM VCSH SCT018 SCT040
TEMPO 2713/2715 05012KT 3SM +SHRA BKN014CB BKN030
FM280000 07011KT P6SM VCSH FEW018 SCT040
マリアナ時間27日23時-28日10時:070度から8ノットの風
10-22時:070度から11ノットの風

但し、27日23時-28日01時の間:一時、
コメント
この記事をはてなブックマークに追加